Time;durP1;ratioP1;P1;durP2;ratioP2;P2;SDS_P1;SDS_P2;PMS_P1;PMS_P2;Temp;Humidity;BMP_temperature;BMP_pressure;BME280_temperature;BME280_humidity;BME280_pressure;Samples;Min_cycle;Max_cycle;Signal;HPM_P1;HPM_P2
2022/02/10 00:04:04;;;;;;;11.20;6.50;;;;;;;7.96;89.39;101409.77;107576;1282;62015;-80
2022/02/10 00:20:12;;;;;;;13.50;6.60;;;;;;;7.93;88.85;101409.17;107635;1282;60807;-81
2022/02/10 00:23:00;;;;;;;16.30;8.30;;;;;;;7.92;88.55;101406.63;107625;1282;76311;-80
2022/02/10 00:36:11;;;;;;;15.70;8.70;;;;;;;7.93;87.91;101405.49;107473;1281;74949;-80
2022/02/10 00:38:44;;;;;;;17.40;7.80;;;;;;;7.93;88.23;101403.34;107538;1281;70867;-80
2022/02/10 00:41:11;;;;;;;19.60;6.70;;;;;;;7.93;87.93;101400.41;107642;1281;74015;-81
2022/02/10 00:43:37;;;;;;;16.40;8.10;;;;;;;7.92;88.10;101399.92;107617;1281;63239;-79
2022/02/10 00:46:06;;;;;;;15.20;7.60;;;;;;;7.92;88.15;101400.96;107688;1281;60326;-80
2022/02/10 00:48:32;;;;;;;12.00;6.60;;;;;;;7.91;88.27;101395.42;107172;1281;528163;-79
2022/02/10 00:50:59;;;;;;;11.10;6.40;;;;;;;7.90;88.02;101391.47;107555;1282;59154;-79
2022/02/10 00:53:29;;;;;;;14.60;7.70;;;;;;;7.90;87.80;101383.56;107305;1282;72004;-80
2022/02/10 00:55:55;;;;;;;14.10;6.80;;;;;;;7.89;87.47;101376.60;107423;1284;64674;-80
2022/02/10 00:58:28;;;;;;;10.70;5.80;;;;;;;7.89;87.28;101375.88;107553;1282;61686;-80
2022/02/10 01:12:26;;;;;;;12.60;6.20;;;;;;;7.91;86.70;101370.80;107565;1282;60374;-79
2022/02/10 01:31:43;;;;;;;9.50;5.30;;;;;;;7.91;85.29;101339.59;107257;1282;70514;-81
2022/02/10 01:34:10;;;;;;;10.20;5.00;;;;;;;7.91;85.49;101336.45;107546;1282;59290;-81
2022/02/10 01:36:37;;;;;;;9.80;4.80;;;;;;;7.91;85.33;101337.60;107559;1282;62280;-81
2022/02/10 01:39:05;;;;;;;10.90;5.00;;;;;;;7.91;85.14;101331.86;107595;1282;62022;-81
2022/02/10 02:03:53;;;;;;;6.60;4.00;;;;;;;7.90;83.97;101291.09;107538;1282;61755;-81
2022/02/10 02:06:24;;;;;;;7.20;4.20;;;;;;;7.90;83.91;101289.67;107521;1281;60589;-81
2022/02/10 02:08:51;;;;;;;9.90;4.70;;;;;;;7.91;83.99;101286.45;107492;1282;75830;-81
2022/02/10 02:11:24;;;;;;;10.30;5.20;;;;;;;7.91;83.64;101284.53;107541;1282;72407;-80
2022/02/10 02:13:50;;;;;;;9.10;4.40;;;;;;;7.92;83.69;101278.23;107543;1282;73131;-80
2022/02/10 02:16:17;;;;;;;7.70;4.90;;;;;;;7.92;83.32;101272.76;107538;1282;59389;-80
2022/02/10 02:18:44;;;;;;;8.40;3.70;;;;;;;7.92;83.01;101264.97;107137;1282;62394;-80
2022/02/10 02:21:19;;;;;;;6.90;4.00;;;;;;;7.93;83.12;101266.27;107632;1270;76387;-80
2022/02/10 02:26:22;;;;;;;7.80;4.40;;;;;;;7.95;83.15;101260.30;107340;1271;73975;-81
2022/02/10 02:28:53;;;;;;;7.60;4.00;;;;;;;7.95;82.85;101259.66;107501;1271;64780;-80
2022/02/10 02:31:26;;;;;;;9.80;4.20;;;;;;;7.95;82.90;101254.15;107705;1281;60597;-80
2022/02/10 03:08:50;;;;;;;8.30;5.00;;;;;;;7.78;83.67;101208.97;107553;1282;62406;-81
2022/02/10 03:11:17;;;;;;;;;;;;;;;7.76;83.54;101209.96;107565;1282;60009;-81
2022/02/10 03:13:53;;;;;;;8.40;4.30;;;;;;;7.75;83.85;101207.23;107554;1282;75484;-80
2022/02/10 03:19:18;;;;;;;9.90;4.70;;;;;;;7.73;83.76;101199.86;107572;1282;72983;-80
2022/02/10 04:18:36;;;;;;;7.60;4.80;;;;;;;7.65;83.32;101118.64;107596;1281;59046;-80
2022/02/10 04:54:05;;;;;;;7.40;4.60;;;;;;;7.56;82.63;101067.35;107542;1282;74158;-80
2022/02/10 05:04:43;;;;;;;7.40;4.10;;;;;;;7.59;82.31;101058.83;107581;1282;71239;-80
2022/02/10 05:31:37;;;;;;;6.40;3.10;;;;;;;7.59;81.81;101028.20;107429;1282;72488;-80
2022/02/10 05:34:05;;;;;;;6.80;3.20;;;;;;;7.58;81.97;101026.81;107525;1282;74268;-81
2022/02/10 05:36:34;;;;;;;9.80;3.60;;;;;;;7.58;82.11;101023.54;107528;1281;63435;-80
2022/02/10 05:39:11;;;;;;;6.80;3.30;;;;;;;7.58;82.05;101019.64;107573;1282;61110;-81
2022/02/10 05:54:40;;;;;;;4.50;2.60;;;;;;;7.55;82.74;101023.13;107624;1281;74917;-79
2022/02/10 06:39:55;;;;;;;10.10;5.40;;;;;;;7.35;84.80;101010.94;107556;1281;71841;-80
2022/02/10 06:52:04;;;;;;;8.20;4.20;;;;;;;7.29;85.65;101009.71;107553;1282;71435;-80
2022/02/10 07:03:18;;;;;;;7.60;4.40;;;;;;;7.24;85.98;101012.97;107517;1282;75015;-80
2022/02/10 07:56:30;;;;;;;7.90;5.80;;;;;;;7.07;88.79;100999.52;107573;1281;74981;-81
2022/02/10 09:01:35;;;;;;;12.20;5.20;;;;;;;7.74;85.14;101000.42;107658;1281;62152;-80
2022/02/10 09:12:14;;;;;;;11.30;5.50;;;;;;;7.75;84.17;101008.35;107858;1281;61614;-82
2022/02/10 09:14:48;;;;;;;11.00;4.50;;;;;;;7.75;84.67;101010.52;107849;1281;61399;-81
2022/02/10 09:47:28;;;;;;;9.90;5.30;;;;;;;7.92;84.10;101001.63;107847;1281;60369;-80
2022/02/10 09:58:43;;;;;;;11.70;4.90;;;;;;;7.90;84.89;100994.57;107016;1290;75750;-80
2022/02/10 10:01:44;;;;;;;9.50;5.40;;;;;;;7.82;85.89;100998.20;106910;1288;72277;-80
2022/02/10 10:04:33;;;;;;;;;;;;;;;;;;;;;
2022/02/10 10:08:14;;;;;;;10.00;5.90;;;;;;;7.62;87.35;101008.31;107645;1284;62325;-80
2022/02/10 10:20:58;;;;;;;12.70;6.70;;;;;;;7.29;91.12;101012.34;106580;1290;74479;-81
2022/02/10 10:53:34;;;;;;;22.40;9.80;;;;;;;6.50;100.00;101035.30;107484;1283;60728;-77
2022/02/10 10:58:46;;;;;;;16.40;8.00;;;;;;;6.47;100.00;101047.35;107486;1282;72993;-77
2022/02/10 11:40:04;;;;;;;4.00;1.10;;;;;;;5.93;100.00;101054.11;106092;1296;75764;-78
2022/02/10 11:43:06;;;;;;;;;;;;;;;;;;;;;
2022/02/10 12:39:02;;;;;;;4.10;2.30;;;;;;;6.43;97.69;101079.70;107396;1284;61638;-80
2022/02/10 13:02:52;;;;;;;6.60;2.90;;;;;;;6.50;97.90;101060.67;107547;1282;70469;-79
2022/02/10 13:33:18;;;;;;;5.40;1.30;;;;;;;7.29;86.22;101030.13;107545;1283;62429;-80
2022/02/10 13:50:53;;;;;;;2.00;0.90;;;;;;;7.65;82.94;101065.48;107551;1282;62991;-77
2022/02/10 14:11:50;;;;;;;3.80;1.10;;;;;;;7.99;79.28;101064.81;107485;1282;71528;-76
2022/02/10 14:14:18;;;;;;;2.70;1.10;;;;;;;7.94;79.45;101070.42;107475;1282;73090;-75
2022/02/10 14:19:37;;;;;;;4.10;0.90;;;;;;;7.61;81.44;101073.45;107492;1282;60900;-76
2022/02/10 14:27:19;;;;;;;4.10;1.00;;;;;;;7.21;82.57;101079.45;107511;1284;74092;-75
2022/02/10 14:29:47;;;;;;;1.50;0.80;;;;;;;7.13;82.25;101077.92;107427;1284;61856;-75
2022/02/10 14:32:19;;;;;;;2.00;0.70;;;;;;;7.07;82.04;101083.23;107557;1282;60810;-76
2022/02/10 14:34:48;;;;;;;3.30;1.10;;;;;;;7.00;81.83;101079.88;107479;1282;74285;-76
2022/02/10 14:40:12;;;;;;;1.60;0.90;;;;;;;6.88;81.69;101086.16;107451;1282;73617;-76
2022/02/10 16:17:15;;;;;;;3.30;1.20;;;;;;;5.88;87.14;101142.67;107537;1284;72941;-80
2022/02/10 16:19:44;;;;;;;3.80;1.10;;;;;;;5.86;87.12;101137.95;107581;1284;63780;-80
2022/02/10 16:25:06;;;;;;;4.00;1.40;;;;;;;5.79;87.39;101135.36;107665;1283;75122;-80
2022/02/10 16:27:35;;;;;;;5.10;1.30;;;;;;;5.76;87.02;101127.73;107614;1284;71954;-80
2022/02/10 16:30:12;;;;;;;4.60;1.70;;;;;;;5.73;86.96;101134.66;107519;1284;74010;-80
2022/02/10 16:32:44;;;;;;;4.30;1.70;;;;;;;5.72;87.01;101131.56;107597;1284;61923;-80
2022/02/10 16:35:15;;;;;;;3.90;1.60;;;;;;;5.71;87.62;101134.98;107682;1284;60712;-80
2022/02/10 16:37:47;;;;;;;3.90;1.30;;;;;;;5.69;87.48;101132.84;107460;1284;76165;-80
2022/02/10 16:40:21;;;;;;;4.60;1.50;;;;;;;5.68;87.22;101133.54;107604;1283;71329;-80
2022/02/10 16:42:49;;;;;;;4.40;1.90;;;;;;;5.68;87.05;101138.11;107701;1284;72575;-80
2022/02/10 16:45:19;;;;;;;5.10;1.60;;;;;;;5.67;87.52;101137.86;107483;1284;61202;-80
2022/02/10 16:47:55;;;;;;;3.80;1.60;;;;;;;5.65;87.76;101136.80;107537;1284;60894;-79
2022/02/10 16:50:43;;;;;;;6.50;1.60;;;;;;;5.63;87.65;101142.53;107639;1283;76439;-79
2022/02/10 16:53:16;;;;;;;7.30;1.30;;;;;;;5.62;87.72;101141.73;107690;1284;70810;-80
2022/02/10 16:56:06;;;;;;;6.80;1.70;;;;;;;5.62;87.86;101142.85;107598;1284;74637;-80
2022/02/10 16:58:48;;;;;;;3.20;1.90;;;;;;;5.61;88.04;101148.17;107564;1283;62876;-79
2022/02/10 17:03:21;;;;;;;3.70;2.20;;;;;;;5.61;87.88;101150.25;107550;1284;59247;-80
2022/02/10 17:05:15;;;;;;;;;;;;;;;;;;;;;
2022/02/10 17:19:58;;;;;;;;;;;;;;;;;;;;;
2022/02/10 17:25:16;;;;;;;9.00;2.60;;;;;;;5.57;89.19;101146.56;107430;1283;72194;-80
2022/02/10 17:27:46;;;;;;;5.40;2.00;;;;;;;5.57;89.30;101146.58;107595;1284;60555;-80
2022/02/10 17:31:04;;;;;;;6.70;2.10;;;;;;;5.56;89.16;101144.04;107617;1284;62797;-80
2022/02/10 17:33:38;;;;;;;7.80;2.60;;;;;;;5.54;89.44;101153.13;107650;1284;74991;-80
2022/02/10 17:36:29;;;;;;;7.30;2.70;;;;;;;5.52;88.67;101159.11;107485;1284;71471;-80
2022/02/10 17:52:56;;;;;;;;;;;;;;;5.49;89.12;101162.86;107631;1283;74030;-80
2022/02/10 17:55:26;;;;;;;6.50;3.00;;;;;;;5.48;89.44;101167.69;107613;1284;62496;-80
2022/02/10 17:57:53;;;;;;;7.80;3.20;;;;;;;5.48;89.61;101175.61;107665;1284;61954;-80
2022/02/10 18:00:23;;;;;;;4.60;2.50;;;;;;;5.46;89.87;101173.27;107527;1284;75993;-80
2022/02/10 18:02:51;;;;;;;11.60;2.90;;;;;;;5.46;89.95;101176.98;107546;1284;71327;-79
2022/02/10 18:05:50;;;;;;;6.70;3.00;;;;;;;5.46;90.16;101177.70;107511;1284;71971;-80
2022/02/10 18:08:11;;;;;;;4.70;2.30;;;;;;;5.43;89.99;101173.52;107674;1284;62693;-80
2022/02/10 18:13:46;;;;;;;;;;;;;;;;;;;;;
2022/02/10 18:16:22;;;;;;;5.20;2.10;;;;;;;5.37;86.07;101168.84;107454;1284;75119;-80
2022/02/10 18:18:58;;;;;;;7.00;2.00;;;;;;;5.35;85.70;101170.59;107519;1284;74198;-80
2022/02/10 18:23:06;;;;;;;;;;;;;;;5.35;85.93;101166.36;107685;1283;61542;-81
2022/02/10 18:54:24;;;;;;;4.10;2.20;;;;;;;5.29;86.55;101177.82;107619;1284;62026;-80
2022/02/10 19:09:39;;;;;;;3.90;1.80;;;;;;;5.05;87.63;101189.49;107575;1284;76141;-80
2022/02/10 19:12:15;;;;;;;13.00;1.90;;;;;;;5.03;87.77;101188.64;107591;1283;71827;-80
2022/02/10 19:14:52;;;;;;;5.00;2.00;;;;;;;5.02;87.89;101188.75;107378;1284;74901;-80
2022/02/10 19:17:24;;;;;;;4.80;1.80;;;;;;;5.00;87.71;101191.74;107626;1284;62279;-80
2022/02/10 19:20:10;;;;;;;6.80;2.20;;;;;;;4.98;87.31;101197.68;107625;1284;61712;-80
2022/02/10 19:22:43;;;;;;;5.20;2.20;;;;;;;4.97;87.13;101204.42;107582;1282;76268;-80
2022/02/10 19:25:12;;;;;;;5.50;2.10;;;;;;;4.96;86.93;101203.06;107558;1284;72021;-80
2022/02/10 19:27:42;;;;;;;4.10;2.00;;;;;;;4.96;86.82;101210.60;107392;1284;73976;-80
2022/02/10 19:30:26;;;;;;;6.00;2.00;;;;;;;4.96;86.43;101204.45;107581;1284;61424;-80
2022/02/10 19:33:13;;;;;;;4.80;1.80;;;;;;;4.96;85.87;101205.36;107488;1284;60717;-80
2022/02/10 19:35:49;;;;;;;4.30;1.90;;;;;;;4.95;85.67;101199.51;107563;1284;74239;-80
2022/02/10 19:38:19;;;;;;;5.60;2.30;;;;;;;4.93;85.23;101199.15;107600;1284;71505;-80
2022/02/10 19:41:08;;;;;;;3.90;1.80;;;;;;;4.92;84.30;101201.48;107622;1283;73406;-80
2022/02/10 19:44:01;;;;;;;4.70;2.70;;;;;;;4.92;83.99;101203.04;107628;1283;64708;-81
2022/02/10 19:46:44;;;;;;;6.90;1.30;;;;;;;4.90;83.96;101200.18;107434;1283;61350;-80
2022/02/10 19:49:18;;;;;;;3.50;1.20;;;;;;;4.88;83.73;101203.36;107691;1282;76182;-80
2022/02/10 19:51:47;;;;;;;3.60;1.60;;;;;;;4.87;83.73;101203.58;107678;1284;72884;-80
2022/02/10 19:54:30;;;;;;;7.40;1.40;;;;;;;4.87;84.14;101203.46;107456;1283;74150;-81
2022/02/10 19:57:17;;;;;;;;;;;;;;;;;;;;;
2022/02/10 20:00:00;;;;;;;;;;;;;;;;;;;;;
2022/02/10 20:02:40;;;;;;;5.60;1.00;;;;;;;4.83;84.87;101202.53;107540;1283;76158;-81
2022/02/10 20:05:22;;;;;;;4.40;1.30;;;;;;;4.81;85.05;101202.13;107617;1282;71914;-86
2022/02/10 20:07:58;;;;;;;11.40;2.70;;;;;;;4.79;85.77;101208.09;107426;1285;76246;-83
2022/02/10 20:11:01;;;;;;;;;;;;;;;;;;;;;
2022/02/10 20:13:56;;;;;;;10.40;2.40;;;;;;;4.77;86.62;101205.48;107470;1287;61277;-83
2022/02/10 20:16:22;;;;;;;5.30;2.00;;;;;;;4.76;86.64;101208.20;107021;1287;77555;-82
2022/02/10 20:18:52;;;;;;;4.80;2.00;;;;;;;4.74;87.10;101210.77;107389;1287;72564;-82
2022/02/10 20:21:22;;;;;;;5.70;1.80;;;;;;;4.75;87.23;101207.23;107100;1287;72162;-81
2022/02/10 20:23:56;;;;;;;7.00;2.00;;;;;;;4.74;87.30;101203.77;107340;1286;61451;-81
2022/02/10 20:26:23;;;;;;;3.90;1.80;;;;;;;4.74;87.39;101203.67;107312;1285;60737;-82
2022/02/10 20:29:01;;;;;;;3.30;2.00;;;;;;;4.71;88.03;101201.23;107343;1287;75994;-82
2022/02/10 20:31:32;;;;;;;5.70;2.20;;;;;;;4.69;88.29;101204.16;107438;1284;73292;-81
2022/02/10 20:34:02;;;;;;;4.40;1.90;;;;;;;4.67;88.53;101204.01;107706;1283;72957;-81
2022/02/10 20:36:34;;;;;;;3.30;1.10;;;;;;;4.65;88.54;101202.44;107436;1284;61616;-82
2022/02/10 20:39:10;;;;;;;3.70;2.00;;;;;;;4.62;88.70;101201.80;107521;1284;60749;-82
2022/02/10 20:41:51;;;;;;;;;;;;;;;;;;;;;
2022/02/10 20:44:42;;;;;;;8.90;1.90;;;;;;;4.56;88.84;101208.07;107672;1284;71341;-82
2022/02/10 20:47:15;;;;;;;6.20;1.90;;;;;;;4.52;88.75;101213.66;107374;1287;74067;-81
2022/02/10 20:49:45;;;;;;;3.80;2.00;;;;;;;4.48;89.24;101205.51;107371;1285;61591;-81
2022/02/10 20:54:56;;;;;;;4.20;1.90;;;;;;;4.45;89.47;101198.77;102896;1312;601518;-79
2022/02/10 20:57:23;;;;;;;4.90;2.40;;;;;;;4.39;89.59;101195.02;105896;1284;61401;-79
2022/02/10 20:59:58;;;;;;;6.40;2.40;;;;;;;4.37;89.45;101196.42;105676;1287;60664;-80
2022/02/10 21:02:32;;;;;;;4.00;2.00;;;;;;;4.35;89.50;101198.73;105677;1284;72570;-79
2022/02/10 21:05:36;;;;;;;4.70;1.90;;;;;;;4.31;89.76;101197.61;105725;1284;71512;-82
2022/02/10 21:08:07;;;;;;;3.30;2.10;;;;;;;4.29;89.74;101193.41;105513;1284;288107;-80
2022/02/10 21:10:44;;;;;;;4.30;2.00;;;;;;;4.27;89.96;101187.39;105863;1283;62320;-81
2022/02/10 21:13:34;;;;;;;4.10;2.10;;;;;;;4.27;89.94;101182.52;106047;1283;61805;-81
2022/02/10 21:16:21;;;;;;;5.40;1.60;;;;;;;4.27;90.04;101179.36;105681;1283;72505;-80
2022/02/10 21:19:11;;;;;;;4.60;2.20;;;;;;;4.25;90.05;101180.55;105787;1282;71440;-81
2022/02/10 21:21:52;;;;;;;3.70;1.50;;;;;;;4.23;90.30;101186.10;105757;1283;73750;-81
2022/02/10 21:24:26;;;;;;;6.10;2.40;;;;;;;4.22;90.19;101188.55;105679;1283;61198;-81
2022/02/10 21:30:05;;;;;;;4.50;2.30;;;;;;;4.19;90.50;101186.45;105381;1284;74943;-80
2022/02/10 21:32:57;;;;;;;4.70;1.70;;;;;;;4.18;90.37;101190.05;105792;1283;72116;-81
2022/02/10 21:38:42;;;;;;;7.30;2.70;;;;;;;4.16;90.81;101197.41;106126;1280;61504;-80
2022/02/10 21:55:28;;;;;;;7.00;2.50;;;;;;;4.08;91.30;101193.77;106000;1280;62285;-81
2022/02/10 22:19:23;;;;;;;5.20;3.10;;;;;;;3.98;92.35;101202.80;105304;1286;72890;-82
2022/02/10 22:22:09;;;;;;;5.80;2.90;;;;;;;3.98;92.46;101202.48;106073;1280;60286;-82
2022/02/10 22:24:46;;;;;;;6.00;1.80;;;;;;;3.98;92.58;101204.39;106024;1280;60302;-82
2022/02/10 22:27:44;;;;;;;4.90;2.60;;;;;;;3.98;92.52;101207.05;106043;1280;72951;-84
2022/02/10 22:30:51;;;;;;;6.40;2.90;;;;;;;3.97;92.61;101203.73;106240;1280;72041;-82
2022/02/10 22:34:10;;;;;;;;;;;;;;;;;;;;;
2022/02/10 22:37:10;;;;;;;;;;;;;;;;;;;;;
2022/02/10 22:39:57;;;;;;;9.60;3.30;;;;;;;3.99;92.86;101206.24;106276;1280;60479;-83
2022/02/10 22:43:23;;;;;;;6.70;3.20;;;;;;;3.98;92.91;101206.66;106106;1278;75996;-83
2022/02/10 22:46:11;;;;;;;8.30;3.90;;;;;;;3.97;92.88;101202.58;106052;1280;71708;-82
2022/02/10 22:48:51;;;;;;;6.20;3.10;;;;;;;3.97;93.19;101208.14;106146;1280;73487;-82
2022/02/10 22:51:50;;;;;;;6.90;3.70;;;;;;;3.97;93.34;101205.53;106233;1280;61614;-82
2022/02/10 22:54:19;;;;;;;8.40;4.00;;;;;;;3.96;94.02;101204.53;106233;1279;60696;-82
2022/02/10 22:57:08;;;;;;;;;;;;;;;;;;;;;
2022/02/10 22:59:41;;;;;;;8.80;4.20;;;;;;;3.95;94.20;101203.21;105981;1280;72525;-82
2022/02/10 23:02:22;;;;;;;9.10;4.10;;;;;;;3.95;94.59;101203.08;105901;1280;74297;-83
2022/02/10 23:05:11;;;;;;;;;;;;;;;;;;;;;
2022/02/10 23:07:43;;;;;;;14.20;5.50;;;;;;;3.94;94.67;101198.41;106029;1280;59675;-82
2022/02/10 23:13:44;;;;;;;10.70;5.10;;;;;;;3.88;94.80;101194.16;105857;1280;72034;-83
2022/02/10 23:16:40;;;;;;;;;;;;;;;;;;;;;
2022/02/10 23:19:39;;;;;;;8.20;3.80;;;;;;;3.85;94.88;101202.90;106018;1280;61596;-83
2022/02/10 23:22:34;;;;;;;8.90;4.90;;;;;;;3.83;95.00;101203.48;106435;1280;59589;-83
2022/02/10 23:25:10;;;;;;;10.70;3.60;;;;;;;3.81;95.53;101208.48;105929;1280;72998;-83
2022/02/10 23:27:45;;;;;;;8.50;4.70;;;;;;;3.80;95.39;101207.69;106138;1280;71544;-83
2022/02/10 23:30:23;;;;;;;;;;;;;;;;;;;;;
2022/02/10 23:33:37;;;;;;;10.70;4.80;;;;;;;3.78;95.40;101210.85;105985;1280;63092;-82
2022/02/10 23:40:00;;;;;;;;;;;;;;;;;;;;;
2022/02/10 23:42:56;;;;;;;5.00;3.20;;;;;;;3.81;93.38;101205.71;106143;1280;71332;-82
2022/02/10 23:46:06;;;;;;;;;;;;;;;;;;;;;
2022/02/10 23:48:43;;;;;;;12.60;4.00;;;;;;;3.82;92.75;101206.86;106179;1279;61461;-82
2022/02/10 23:51:59;;;;;;;6.60;2.60;;;;;;;3.80;92.54;101209.78;106302;1280;59519;-82
2022/02/10 23:55:17;;;;;;;5.60;2.00;;;;;;;3.80;91.11;101210.70;106012;1279;71875;-83
